Time;durP1;ratioP1;P1;durP2;ratioP2;P2;SDS_P1;SDS_P2;PMS_P1;PMS_P2;Temp;Humidity;BMP_temperature;BMP_pressure;BME280_temperature;BME280_humidity;BME280_pressure;Samples;Min_cycle;Max_cycle;Signal;HPM_P1;HPM_P2
2023/01/19 00:01:53;;;;;;;12.52;11.65;;;;;;;3.41;68.77;100035.34;5104298;28;20040;-80
2023/01/19 00:04:18;;;;;;;18.23;16.45;;;;;;;3.40;68.77;100031.84;5103132;28;20061;-80
2023/01/19 00:06:43;;;;;;;13.48;12.35;;;;;;;3.42;69.02;100042.31;5100944;28;20035;-79
2023/01/19 00:09:09;;;;;;;13.23;12.43;;;;;;;3.42;69.04;100039.63;5101060;28;20161;-80
2023/01/19 00:11:34;;;;;;;13.57;12.75;;;;;;;3.43;69.03;100043.97;5095565;28;20313;-80
2023/01/19 00:13:59;;;;;;;13.55;12.55;;;;;;;3.43;68.87;100050.13;5098691;28;20085;-81
2023/01/19 00:16:25;;;;;;;15.95;14.55;;;;;;;3.44;68.80;100050.94;5100536;28;20028;-80
2023/01/19 00:18:51;;;;;;;13.27;12.23;;;;;;;3.44;68.87;100048.25;5097942;28;20044;-79
2023/01/19 00:21:17;;;;;;;13.45;12.27;;;;;;;3.43;68.95;100042.09;5095261;28;20108;-80
2023/01/19 00:23:46;;;;;;;11.30;10.60;;;;;;;3.44;68.80;100037.56;5106299;28;20122;-79
2023/01/19 00:26:12;;;;;;;12.02;11.07;;;;;;;3.44;68.73;100041.06;5100962;28;20039;-80
2023/01/19 00:28:41;;;;;;;12.10;11.30;;;;;;;3.44;68.99;100042.91;5102992;28;20039;-79
2023/01/19 00:31:07;;;;;;;11.50;10.70;;;;;;;3.45;68.88;100031.19;5096788;28;20030;-80
2023/01/19 00:33:32;;;;;;;13.90;12.68;;;;;;;3.44;68.56;100038.38;5098067;28;20036;-80
2023/01/19 00:35:57;;;;;;;10.75;10.15;;;;;;;3.44;68.80;100034.91;5099629;28;20036;-81
2023/01/19 00:38:23;;;;;;;18.48;13.07;;;;;;;3.44;68.62;100033.06;5107960;28;20103;-80
2023/01/19 00:40:49;;;;;;;13.88;12.63;;;;;;;3.45;68.57;100025.84;5101747;28;20044;-80
2023/01/19 00:43:14;;;;;;;14.15;12.82;;;;;;;3.45;68.79;100033.88;5093055;28;20115;-80
2023/01/19 00:45:40;;;;;;;13.68;12.55;;;;;;;3.45;68.98;100024.03;5097503;28;20101;-79
2023/01/19 00:48:06;;;;;;;11.70;10.85;;;;;;;3.45;68.86;100029.38;5094682;28;20081;-80
2023/01/19 00:50:32;;;;;;;13.55;12.45;;;;;;;3.46;69.10;100035.50;5099990;28;20056;-79
2023/01/19 00:53:01;;;;;;;12.85;11.85;;;;;;;3.46;69.11;100032.84;5091441;28;20032;-81
2023/01/19 00:55:28;;;;;;;14.20;13.10;;;;;;;3.45;68.60;100036.53;5108925;28;20031;-81
2023/01/19 00:57:53;;;;;;;12.18;11.45;;;;;;;3.46;68.83;100035.50;5099912;28;20076;-80
2023/01/19 01:00:20;;;;;;;12.73;11.80;;;;;;;3.46;69.13;100031.00;5105846;28;20044;-80
2023/01/19 01:02:47;;;;;;;13.85;12.73;;;;;;;3.46;69.14;100036.34;5100728;28;20088;-81
2023/01/19 01:05:12;;;;;;;11.75;11.02;;;;;;;3.45;68.87;100028.53;5101962;28;20068;-80
2023/01/19 01:07:39;;;;;;;14.15;11.65;;;;;;;3.46;68.60;100039.00;5099899;28;20454;-80
2023/01/19 01:10:10;;;;;;;16.60;12.48;;;;;;;3.46;68.79;100032.84;5106165;28;20031;-79
2023/01/19 01:12:36;;;;;;;11.82;11.02;;;;;;;3.46;68.73;100031.00;5105310;28;20024;-80
2023/01/19 01:15:01;;;;;;;12.32;10.88;;;;;;;3.46;69.10;100031.00;5102420;28;20425;-79
2023/01/19 01:17:27;;;;;;;14.25;13.05;;;;;;;3.46;68.78;100036.34;5102955;28;20036;-80
2023/01/19 01:19:52;;;;;;;12.02;11.32;;;;;;;3.46;68.83;100036.34;5099602;28;20031;-80
2023/01/19 01:22:18;;;;;;;11.45;10.65;;;;;;;3.47;68.63;100037.97;5090748;28;20028;-80
2023/01/19 01:24:43;;;;;;;11.43;10.73;;;;;;;3.47;68.85;100043.28;5093663;28;20089;-79
2023/01/19 01:27:09;;;;;;;12.77;11.85;;;;;;;3.49;69.01;100050.28;5109161;28;20063;-80
2023/01/19 01:29:35;;;;;;;14.52;13.32;;;;;;;3.47;68.99;100061.19;5109188;28;20032;-81
2023/01/19 01:32:01;;;;;;;13.23;11.98;;;;;;;3.49;69.14;100064.47;5100730;28;20426;-81
2023/01/19 01:34:26;;;;;;;16.13;14.48;;;;;;;3.49;69.06;100071.66;5108847;28;20485;-80
2023/01/19 01:36:53;;;;;;;14.10;13.05;;;;;;;3.50;68.62;100067.94;5097350;28;20032;-82
2023/01/19 01:39:19;;;;;;;16.90;13.60;;;;;;;3.47;68.94;100067.31;5098489;28;20048;-82
2023/01/19 01:41:44;;;;;;;11.65;10.95;;;;;;;3.48;68.88;100081.53;5101718;28;20071;-81
2023/01/19 01:45:00;;;;;;;11.05;10.05;;;;;;;3.49;69.13;100080.47;5094083;28;20391;-82
2023/01/19 01:47:47;;;;;;;12.63;11.77;;;;;;;3.48;68.76;100100.22;5044493;28;20589;-81
2023/01/19 01:50:21;;;;;;;13.45;12.20;;;;;;;3.47;69.14;100086.00;5108903;28;20108;-81
2023/01/19 01:52:51;;;;;;;15.57;14.30;;;;;;;3.47;68.94;100085.19;5110153;28;20127;-82
2023/01/19 01:55:19;;;;;;;12.88;11.80;;;;;;;3.48;68.68;100092.19;5110774;28;20034;-81
2023/01/19 01:57:50;;;;;;;13.15;11.98;;;;;;;3.46;68.97;100097.75;5106145;28;20032;-80
2023/01/19 02:00:16;;;;;;;11.27;10.60;;;;;;;3.49;69.00;100093.00;5112614;28;20035;-83
2023/01/19 02:02:51;;;;;;;12.73;11.85;;;;;;;3.47;69.04;100087.88;5100333;28;20038;-82
2023/01/19 02:05:23;;;;;;;15.63;14.30;;;;;;;3.48;68.83;100092.19;5099443;28;20027;-82
2023/01/19 02:13:23;;;;;;;12.98;12.13;;;;;;;3.50;68.83;100106.13;5099346;28;20395;-81
2023/01/19 02:16:01;;;;;;;12.27;11.48;;;;;;;3.47;69.24;100104.72;5094075;28;20024;-82
2023/01/19 02:18:28;;;;;;;14.20;13.02;;;;;;;3.49;69.25;100109.84;5104924;28;20043;-81
2023/01/19 02:21:18;;;;;;;11.60;10.80;;;;;;;3.50;69.07;100110.66;5111543;28;20462;-81
2023/01/19 02:23:52;;;;;;;11.63;10.80;;;;;;;3.47;68.99;100104.72;5113326;28;20031;-80
2023/01/19 02:26:22;;;;;;;13.95;12.73;;;;;;;3.51;69.34;100112.31;5102875;28;20027;-82
2023/01/19 02:28:56;;;;;;;11.02;10.32;;;;;;;3.51;69.30;100112.31;5105418;28;20387;-82
2023/01/19 02:31:22;;;;;;;11.13;10.35;;;;;;;3.50;69.31;100114.16;5102235;28;20036;-82
2023/01/19 02:33:48;;;;;;;12.68;11.88;;;;;;;3.50;69.12;100119.47;5103939;28;20046;-82
2023/01/19 02:36:15;;;;;;;12.25;11.32;;;;;;;3.50;68.99;100122.16;5109925;28;20038;-82
2023/01/19 02:38:44;;;;;;;14.00;12.70;;;;;;;3.50;68.95;100124.00;5112249;28;20030;-82
2023/01/19 02:41:13;;;;;;;10.70;10.10;;;;;;;3.51;68.97;100131.00;5113081;28;20036;-82
2023/01/19 02:43:40;;;;;;;12.40;11.40;;;;;;;3.51;68.95;100133.69;5098473;28;20028;-82
2023/01/19 02:46:07;;;;;;;12.27;11.23;;;;;;;3.52;68.88;100127.28;5099623;28;20092;-83
2023/01/19 02:48:32;;;;;;;12.68;11.65;;;;;;;3.52;68.99;100137.97;5097285;28;20059;-81
2023/01/19 02:51:10;;;;;;;13.88;12.90;;;;;;;3.53;68.99;100131.59;5097811;28;20408;-81
2023/01/19 02:54:00;;;;;;;14.18;12.98;;;;;;;3.53;68.90;100136.94;5106017;28;20023;-81
2023/01/19 02:56:31;;;;;;;11.82;11.13;;;;;;;3.52;69.02;100140.66;5102604;28;20038;-83
2023/01/19 02:59:12;;;;;;;13.82;12.70;;;;;;;3.52;69.23;100135.31;5094449;28;20043;-80
2023/01/19 03:01:57;;;;;;;12.80;11.88;;;;;;;3.52;69.19;100146.81;5094971;28;20040;-81
2023/01/19 03:04:43;;;;;;;12.68;11.77;;;;;;;3.54;68.78;100154.63;5094832;28;20028;-82
2023/01/19 03:07:15;;;;;;;11.23;10.52;;;;;;;3.53;69.38;100156.47;5102535;28;20487;-81
2023/01/19 03:09:57;;;;;;;15.40;14.05;;;;;;;3.52;69.23;100151.31;5094881;28;20031;-81
2023/01/19 03:12:37;;;;;;;11.82;11.07;;;;;;;3.53;68.92;100161.81;5095387;27;20054;-80
2023/01/19 03:15:14;;;;;;;10.88;10.27;;;;;;;3.53;69.37;100155.63;5094506;28;20042;-81
2023/01/19 03:17:43;;;;;;;14.35;13.35;;;;;;;3.54;68.84;100163.44;5092239;28;20475;-81
2023/01/19 03:20:12;;;;;;;11.80;11.10;;;;;;;3.55;69.20;100161.56;5099855;28;20130;-81
2023/01/19 03:22:38;;;;;;;12.10;11.20;;;;;;;3.55;69.24;100167.72;5110750;28;20376;-81
2023/01/19 03:25:05;;;;;;;12.57;11.70;;;;;;;3.55;69.14;100165.06;5103590;28;20113;-81
2023/01/19 03:27:39;;;;;;;12.05;11.35;;;;;;;3.55;69.11;100173.06;5098605;28;20035;-79
2023/01/19 03:30:09;;;;;;;12.27;11.45;;;;;;;3.56;69.08;100169.41;5097345;28;20536;-81
2023/01/19 03:32:42;;;;;;;11.73;10.82;;;;;;;3.56;69.08;100172.06;5093727;28;20054;-81
2023/01/19 03:35:13;;;;;;;11.18;10.38;;;;;;;3.58;69.24;100182.50;5098829;28;20027;-80
2023/01/19 03:37:42;;;;;;;11.73;10.82;;;;;;;3.58;68.95;100182.50;5100519;28;20143;-80
2023/01/19 03:40:08;;;;;;;12.00;11.30;;;;;;;3.59;68.95;100178.84;5096396;28;20057;-80
2023/01/19 03:42:35;;;;;;;11.57;10.77;;;;;;;3.59;68.88;100190.34;5098419;28;20028;-79
2023/01/19 03:45:02;;;;;;;11.80;11.10;;;;;;;3.60;68.95;100196.47;5099002;28;20032;-81
2023/01/19 03:47:27;;;;;;;10.73;10.13;;;;;;;3.60;68.93;100192.00;5099486;28;20107;-82
2023/01/19 03:49:55;;;;;;;12.27;11.50;;;;;;;3.60;69.04;100194.66;5098402;28;20702;-81
2023/01/19 03:52:32;;;;;;;10.73;10.07;;;;;;;3.62;69.24;100199.78;5100087;28;20072;-80
2023/01/19 03:54:59;;;;;;;11.70;11.00;;;;;;;3.62;68.84;100202.44;5104913;28;20023;-82
2023/01/19 03:57:25;;;;;;;10.80;10.20;;;;;;;3.61;68.87;100206.16;5110592;28;20057;-81
2023/01/19 03:59:50;;;;;;;12.45;11.45;;;;;;;3.62;68.90;100215.78;5097268;28;20032;-80
2023/01/19 04:02:15;;;;;;;11.23;10.43;;;;;;;3.61;68.93;100217.66;5104448;28;20043;-81
2023/01/19 04:04:41;;;;;;;14.52;13.07;;;;;;;3.62;68.89;100227.28;5100525;28;20106;-81
2023/01/19 04:07:09;;;;;;;12.30;11.50;;;;;;;3.63;69.16;100230.81;5106476;28;20569;-81
2023/01/19 04:09:34;;;;;;;11.48;10.70;;;;;;;3.62;68.92;100229.16;5094676;28;20035;-79
2023/01/19 04:12:00;;;;;;;12.23;11.43;;;;;;;3.62;69.10;100231.81;5097494;28;20038;-82
2023/01/19 04:14:26;;;;;;;11.98;11.27;;;;;;;3.62;68.89;100239.84;5101299;28;20103;-81
2023/01/19 04:16:51;;;;;;;12.88;11.93;;;;;;;3.62;69.02;100242.50;5105305;28;20123;-82
2023/01/19 04:19:17;;;;;;;11.63;10.88;;;;;;;3.63;69.04;100252.19;5092064;28;20411;-81
2023/01/19 04:21:42;;;;;;;11.80;10.98;;;;;;;3.63;69.24;100241.50;5101317;28;20032;-80
2023/01/19 04:24:11;;;;;;;12.20;11.48;;;;;;;3.61;69.21;100249.69;5111725;28;20378;-81
2023/01/19 04:26:36;;;;;;;11.73;11.10;;;;;;;3.62;68.85;100245.19;5100398;28;20043;-80
2023/01/19 04:29:04;;;;;;;11.18;10.50;;;;;;;3.62;69.08;100242.50;5094549;28;20031;-79
2023/01/19 04:31:30;;;;;;;11.40;10.73;;;;;;;3.62;68.80;100245.19;5100526;28;20032;-80
2023/01/19 04:33:55;;;;;;;13.77;12.77;;;;;;;3.62;68.99;100239.84;5110773;28;20033;-81
2023/01/19 04:36:21;;;;;;;10.95;10.27;;;;;;;3.62;68.73;100234.50;5110930;28;20023;-81
2023/01/19 04:38:47;;;;;;;12.15;11.13;;;;;;;3.60;69.02;100226.72;5111608;28;20070;-81
2023/01/19 04:41:13;;;;;;;10.98;10.38;;;;;;;3.61;69.10;100214.16;5111713;28;20027;-81
2023/01/19 04:43:38;;;;;;;12.90;12.13;;;;;;;3.60;68.93;100200.00;5111991;28;20028;-78
2023/01/19 04:46:04;;;;;;;11.55;10.82;;;;;;;3.60;68.88;100175.13;5107822;28;20062;-83
2023/01/19 04:48:29;;;;;;;10.73;10.10;;;;;;;3.61;68.97;100174.09;5092868;28;20093;-81
2023/01/19 04:50:54;;;;;;;12.73;11.68;;;;;;;3.59;68.92;100168.16;5090138;28;20202;-82
2023/01/19 04:53:20;;;;;;;11.10;10.50;;;;;;;3.60;68.70;100161.78;5092201;28;20067;-83
2023/01/19 04:55:45;;;;;;;13.13;12.20;;;;;;;3.60;68.79;100162.63;5091673;28;20889;-83
2023/01/19 04:58:11;;;;;;;10.85;10.25;;;;;;;3.60;68.78;100173.28;5096423;28;20383;-83
2023/01/19 05:00:36;;;;;;;11.88;11.07;;;;;;;3.60;69.02;100165.28;5110034;28;20387;-84
2023/01/19 05:03:02;;;;;;;12.20;11.40;;;;;;;3.61;68.66;100174.91;5093456;28;20036;-84
2023/01/19 05:05:28;;;;;;;11.02;10.25;;;;;;;3.61;68.96;100166.09;5108677;28;20030;-83
2023/01/19 05:07:53;;;;;;;12.95;12.00;;;;;;;3.60;68.61;100175.97;5100087;28;20040;-84
2023/01/19 05:10:19;;;;;;;12.75;11.90;;;;;;;3.60;69.04;100175.97;5092511;28;20040;-85
2023/01/19 05:12:44;;;;;;;11.73;10.98;;;;;;;3.61;69.10;100198.16;5101225;28;20574;-83
2023/01/19 05:15:10;;;;;;;11.52;10.82;;;;;;;3.62;68.92;100221.13;5090177;28;20060;-85
2023/01/19 05:17:36;;;;;;;10.55;9.93;;;;;;;3.62;68.67;100239.84;5093748;28;20105;-85
2023/01/19 05:20:03;;;;;;;12.25;11.43;;;;;;;3.61;68.73;100228.34;5098585;28;20039;-83
2023/01/19 05:22:28;;;;;;;11.25;10.55;;;;;;;3.62;68.68;100226.47;5093704;28;20020;-86
2023/01/19 05:24:53;;;;;;;12.65;11.70;;;;;;;3.61;68.82;100225.66;5103018;28;20100;-86
2023/01/19 05:27:19;;;;;;;12.35;11.55;;;;;;;3.61;68.83;100233.69;5092157;28;20487;-85
2023/01/19 05:29:44;;;;;;;10.90;10.25;;;;;;;3.60;68.70;100240.06;5096545;28;20085;-79
2023/01/19 05:32:09;;;;;;;10.88;10.23;;;;;;;3.60;68.79;100223.19;5103299;28;20040;-81
2023/01/19 05:34:35;;;;;;;10.20;9.50;;;;;;;3.61;68.93;100230.19;5101141;28;20150;-79
2023/01/19 05:37:01;;;;;;;12.23;11.38;;;;;;;3.61;68.96;100227.53;5094392;28;20040;-80
2023/01/19 05:39:27;;;;;;;10.90;10.30;;;;;;;3.60;68.82;100229.38;5099133;28;20032;-79
2023/01/19 05:41:52;;;;;;;13.27;12.10;;;;;;;3.60;68.96;100224.03;5104206;28;20028;-79
2023/01/19 05:44:18;;;;;;;11.93;11.23;;;;;;;3.59;68.79;100230.38;5101673;28;20160;-81
2023/01/19 05:46:43;;;;;;;10.98;10.38;;;;;;;3.60;68.87;100224.03;5101551;28;20047;-79
2023/01/19 05:49:10;;;;;;;11.45;10.75;;;;;;;3.60;68.95;100237.38;5094128;28;20504;-80
2023/01/19 05:51:39;;;;;;;11.13;10.52;;;;;;;3.59;68.90;100238.41;5096429;28;20063;-80
2023/01/19 05:54:05;;;;;;;11.75;10.95;;;;;;;3.60;68.91;100228.53;5113431;28;20192;-81
2023/01/19 05:56:32;;;;;;;11.25;10.55;;;;;;;3.59;68.62;100229.56;5111405;28;20028;-81
2023/01/19 05:58:58;;;;;;;15.13;13.20;;;;;;;3.59;68.49;100248.28;5096139;28;20487;-82
2023/01/19 06:01:24;;;;;;;11.80;11.00;;;;;;;3.59;68.62;100249.09;5100104;28;20036;-83
2023/01/19 06:03:49;;;;;;;15.05;14.00;;;;;;;3.59;68.53;100242.94;5103107;28;20050;-81
2023/01/19 06:06:15;;;;;;;12.23;11.43;;;;;;;3.59;68.77;100243.75;5094409;28;20028;-82
2023/01/19 06:08:41;;;;;;;10.77;10.18;;;;;;;3.59;68.86;100246.41;5107388;28;20044;-81
2023/01/19 06:11:06;;;;;;;13.05;12.15;;;;;;;3.60;68.56;100247.22;5101017;27;20028;-81
2023/01/19 06:13:32;;;;;;;11.13;10.43;;;;;;;3.60;68.87;100257.91;5098991;28;20028;-81
2023/01/19 06:15:59;;;;;;;13.23;12.30;;;;;;;3.61;68.71;100256.91;5096961;28;20040;-82
2023/01/19 06:18:24;;;;;;;11.18;10.48;;;;;;;3.60;69.02;100258.75;5094188;28;20120;-81
2023/01/19 06:20:51;;;;;;;11.38;10.52;;;;;;;3.60;68.65;100253.41;5097997;28;20562;-77
2023/01/19 06:23:16;;;;;;;13.77;12.70;;;;;;;3.61;68.94;100256.91;5097765;28;20040;-80
2023/01/19 06:25:42;;;;;;;12.38;11.32;;;;;;;3.60;68.91;100257.91;5100630;28;20433;-79
2023/01/19 06:28:07;;;;;;;12.10;11.27;;;;;;;3.60;68.59;100247.22;5105068;28;20060;-80
2023/01/19 06:30:33;;;;;;;13.02;11.93;;;;;;;3.62;68.63;100250.50;5102008;28;20028;-79
2023/01/19 06:32:58;;;;;;;12.00;11.02;;;;;;;3.60;68.78;100240.06;5104204;28;20039;-80
2023/01/19 06:35:23;;;;;;;14.70;13.15;;;;;;;3.61;68.95;100251.56;5108347;28;20044;-79
2023/01/19 06:37:49;;;;;;;11.68;10.98;;;;;;;3.60;68.88;100241.88;5104775;28;20035;-75
2023/01/19 06:40:15;;;;;;;14.02;13.02;;;;;;;3.60;69.00;100255.25;5106242;28;20036;-81
2023/01/19 06:42:40;;;;;;;11.43;10.73;;;;;;;3.59;68.88;100259.78;5097092;28;20032;-84
2023/01/19 06:45:08;;;;;;;13.10;12.18;;;;;;;3.60;68.61;100257.91;5102210;28;20056;-80
2023/01/19 06:47:33;;;;;;;12.63;11.73;;;;;;;3.60;68.92;100263.25;5100024;28;20123;-81
2023/01/19 06:49:58;;;;;;;15.90;14.65;;;;;;;3.60;68.42;100265.91;5091414;28;20135;-81
2023/01/19 06:52:24;;;;;;;11.80;11.10;;;;;;;3.60;68.89;100272.09;5096155;28;20036;-82
2023/01/19 06:54:49;;;;;;;12.02;11.07;;;;;;;3.60;68.60;100272.09;5097859;27;20032;-81
2023/01/19 06:57:14;;;;;;;12.18;11.45;;;;;;;3.61;68.92;100283.59;5102155;28;20074;-82
2023/01/19 06:59:40;;;;;;;12.52;11.65;;;;;;;3.61;68.92;100275.59;5097809;28;20031;-81
2023/01/19 07:02:05;;;;;;;15.82;14.48;;;;;;;3.61;68.70;100283.59;5101189;28;20031;-80
2023/01/19 07:04:31;;;;;;;10.90;10.30;;;;;;;3.60;68.65;100280.13;5104660;28;20362;-79
2023/01/19 07:06:56;;;;;;;13.93;12.90;;;;;;;3.60;68.89;100287.28;5111020;28;20045;-79
2023/01/19 07:09:24;;;;;;;13.57;12.48;;;;;;;3.60;68.70;100281.94;5102264;28;20028;-80
2023/01/19 07:11:52;;;;;;;12.38;11.30;;;;;;;3.61;68.83;100291.63;5102941;28;20548;-80
2023/01/19 07:14:18;;;;;;;14.00;13.00;;;;;;;3.61;69.00;100294.28;5106632;28;20035;-80
2023/01/19 07:16:43;;;;;;;11.98;11.27;;;;;;;3.60;69.00;100298.81;5108866;28;20387;-81
2023/01/19 07:19:09;;;;;;;16.63;15.30;;;;;;;3.60;68.69;100305.97;5096697;27;20119;-82
2023/01/19 07:21:35;;;;;;;13.50;12.45;;;;;;;3.60;68.62;100306.81;5096381;28;20391;-82
2023/01/19 07:24:01;;;;;;;13.93;12.82;;;;;;;3.60;68.48;100304.16;5094120;27;20031;-83
2023/01/19 07:26:26;;;;;;;12.40;11.70;;;;;;;3.60;68.56;100297.97;5102711;28;20058;-83
2023/01/19 07:28:52;;;;;;;16.02;14.60;;;;;;;3.60;69.04;100312.16;5105745;28;20032;-83
2023/01/19 07:31:18;;;;;;;26.83;14.80;;;;;;;3.60;68.62;100316.66;5110165;28;20058;-83
2023/01/19 07:33:44;;;;;;;12.98;12.18;;;;;;;3.60;68.76;100320.19;5092555;28;20063;-81
2023/01/19 07:36:10;;;;;;;14.95;13.60;;;;;;;3.60;68.76;100330.03;5098657;28;20028;-82
2023/01/19 07:38:35;;;;;;;12.00;11.15;;;;;;;3.60;68.91;100330.03;5112134;28;20049;-81
2023/01/19 07:41:02;;;;;;;15.35;13.77;;;;;;;3.61;68.85;100334.34;5111673;28;20051;-84
2023/01/19 07:43:27;;;;;;;11.38;10.68;;;;;;;3.60;68.50;100338.03;5102246;28;20036;-83
2023/01/19 07:45:56;;;;;;;13.15;12.23;;;;;;;3.60;68.56;100332.69;5092374;28;20103;-80
2023/01/19 07:48:22;;;;;;;14.00;12.80;;;;;;;3.60;68.95;100346.88;5094256;28;20077;-82
2023/01/19 07:50:47;;;;;;;11.20;10.50;;;;;;;3.60;68.88;100343.38;5093024;28;20442;-81
2023/01/19 07:53:13;;;;;;;12.73;11.82;;;;;;;3.60;68.62;100349.56;5091853;28;20024;-83
2023/01/19 07:55:38;;;;;;;14.13;13.23;;;;;;;3.58;68.59;100354.28;5093596;28;20472;-84
2023/01/19 07:58:06;;;;;;;12.50;11.52;;;;;;;3.59;68.66;100363.09;5111900;28;20034;-82
2023/01/19 08:00:32;;;;;;;15.85;13.70;;;;;;;3.58;68.58;100375.66;5111641;28;20032;-81
2023/01/19 08:02:59;;;;;;;14.50;13.32;;;;;;;3.57;68.95;100367.81;5111651;28;20028;-81
2023/01/19 08:05:24;;;;;;;13.88;12.93;;;;;;;3.58;68.72;100372.13;5105767;28;20026;-82
2023/01/19 08:07:50;;;;;;;13.48;12.52;;;;;;;3.58;68.63;100377.47;5099445;28;20032;-80
2023/01/19 08:10:16;;;;;;;13.43;12.27;;;;;;;3.58;68.62;100390.81;5097922;28;20035;-82
2023/01/19 08:12:41;;;;;;;14.02;12.88;;;;;;;3.58;68.69;100380.13;5108294;28;20122;-79
2023/01/19 08:15:10;;;;;;;15.60;13.90;;;;;;;3.57;68.64;100386.53;5097987;28;20099;-81
2023/01/19 08:17:35;;;;;;;17.00;15.38;;;;;;;3.57;68.83;100394.53;5092103;28;20032;-83
2023/01/19 08:20:01;;;;;;;13.68;12.48;;;;;;;3.57;68.87;100391.88;5091780;28;20447;-77
2023/01/19 08:22:26;;;;;;;12.43;11.60;;;;;;;3.55;68.91;100386.72;5106602;28;20088;-84
2023/01/19 08:24:53;;;;;;;17.63;15.82;;;;;;;3.55;68.62;100392.06;5101335;28;20077;-81
2023/01/19 08:27:19;;;;;;;14.32;13.20;;;;;;;3.55;69.05;100392.06;5091402;28;20074;-82
2023/01/19 08:29:44;;;;;;;13.20;12.23;;;;;;;3.55;68.92;100399.25;5092232;28;20479;-83
2023/01/19 08:32:10;;;;;;;15.07;13.88;;;;;;;3.55;68.63;100407.25;5109486;28;20119;-82
2023/01/19 08:34:35;;;;;;;14.88;13.65;;;;;;;3.55;68.76;100407.25;5101687;28;20442;-83
2023/01/19 08:37:01;;;;;;;13.25;12.13;;;;;;;3.56;68.96;100403.59;5092058;28;20070;-81
2023/01/19 08:39:26;;;;;;;12.98;12.07;;;;;;;3.55;68.82;100413.41;5090354;28;20066;-81
2023/01/19 08:41:52;;;;;;;14.13;13.10;;;;;;;3.56;68.58;100414.28;5091374;28;20059;-82
2023/01/19 08:44:18;;;;;;;15.55;14.18;;;;;;;3.56;68.69;100417.75;5104022;28;20157;-82
2023/01/19 08:46:44;;;;;;;20.40;17.83;;;;;;;3.56;68.88;100419.59;5103981;28;20119;-83
2023/01/19 08:49:09;;;;;;;15.43;14.00;;;;;;;3.57;68.96;100426.59;5090916;28;20464;-82
2023/01/19 08:51:35;;;;;;;15.63;14.00;;;;;;;3.57;68.81;100429.25;5099520;28;20550;-83
2023/01/19 08:54:00;;;;;;;15.10;13.82;;;;;;;3.56;69.05;100428.44;5103909;28;20507;-82
2023/01/19 08:56:25;;;;;;;15.52;14.20;;;;;;;3.56;68.77;100427.63;5106111;28;20039;-80
2023/01/19 08:58:51;;;;;;;23.83;14.32;;;;;;;3.57;69.03;100429.25;5091820;28;20108;-81
2023/01/19 09:01:19;;;;;;;19.52;17.73;;;;;;;3.56;68.84;100433.78;5090672;28;20036;-82
2023/01/19 09:03:45;;;;;;;15.38;14.00;;;;;;;3.55;69.12;100432.13;5100542;28;20119;-82
2023/01/19 09:06:13;;;;;;;15.50;14.25;;;;;;;3.58;68.95;100446.91;5091715;28;20052;-84
2023/01/19 09:08:39;;;;;;;13.68;12.20;;;;;;;3.56;69.00;100449.81;5095711;28;20418;-80
2023/01/19 09:11:10;;;;;;;12.48;11.68;;;;;;;3.56;68.92;100449.81;5096018;28;20035;-79
2023/01/19 09:13:35;;;;;;;10.43;9.77;;;;;;;3.57;68.89;100442.59;5100978;28;20053;-82
2023/01/19 09:16:02;;;;;;;16.85;15.23;;;;;;;3.57;68.65;100447.94;5104388;28;20040;-81
2023/01/19 09:18:28;;;;;;;13.38;12.45;;;;;;;3.58;69.00;100454.91;5095810;28;20957;-81
2023/01/19 09:20:56;;;;;;;17.08;15.52;;;;;;;3.57;68.72;100445.28;5094220;28;20550;-82
2023/01/19 09:23:22;;;;;;;16.38;14.90;;;;;;;3.57;68.78;100453.28;5093867;28;20248;-83
2023/01/19 09:25:47;;;;;;;14.73;13.50;;;;;;;3.57;68.93;100453.28;5110580;28;20118;-81
2023/01/19 09:28:15;;;;;;;17.17;15.68;;;;;;;3.57;68.98;100453.28;5093427;28;20021;-83
2023/01/19 09:30:41;;;;;;;12.85;11.93;;;;;;;3.57;68.62;100461.31;5094680;28;20061;-81
2023/01/19 09:33:10;;;;;;;14.65;13.48;;;;;;;3.57;68.99;100461.31;5094431;28;20077;-81
2023/01/19 09:35:39;;;;;;;14.75;13.38;;;;;;;3.56;68.72;100455.16;5099195;28;20391;-81
2023/01/19 09:38:06;;;;;;;11.45;10.73;;;;;;;3.56;68.70;100457.00;5094233;28;20283;-81
2023/01/19 09:40:32;;;;;;;12.30;11.60;;;;;;;3.57;68.69;100461.31;5093060;28;20047;-82
2023/01/19 09:43:22;;;;;;;13.30;12.30;;;;;;;3.56;68.98;100473.03;5094469;28;20036;-82
2023/01/19 09:45:56;;;;;;;13.77;12.25;;;;;;;3.56;68.90;100467.69;5105194;28;20032;-74
2023/01/19 09:48:27;;;;;;;16.45;15.10;;;;;;;3.56;68.65;100463.16;5093496;28;20070;-75
2023/01/19 09:50:55;;;;;;;11.98;11.23;;;;;;;3.56;69.09;100465.81;5093873;28;20055;-77
2023/01/19 09:53:27;;;;;;;22.02;16.38;;;;;;;3.59;68.98;100476.09;5092882;28;20050;-76
2023/01/19 09:55:53;;;;;;;12.13;11.43;;;;;;;3.60;69.11;100477.75;5094063;28;20040;-76
2023/01/19 09:58:19;;;;;;;17.77;16.10;;;;;;;3.60;69.03;100483.09;5093257;28;20035;-77
2023/01/19 10:00:54;;;;;;;14.60;13.30;;;;;;;3.60;68.75;100483.09;5093960;28;20039;-76
2023/01/19 10:03:21;;;;;;;14.43;13.05;;;;;;;3.61;68.64;100481.25;5104824;28;20079;-76
2023/01/19 10:05:57;;;;;;;13.05;12.15;;;;;;;3.61;68.69;100483.91;5112094;28;20092;-76
2023/01/19 10:08:34;;;;;;;17.92;15.57;;;;;;;3.60;69.09;100490.25;5108244;28;20024;-76
2023/01/19 10:11:00;;;;;;;14.30;13.30;;;;;;;3.59;68.99;100493.97;5102462;28;20409;-76
2023/01/19 10:13:35;;;;;;;14.20;12.95;;;;;;;3.59;69.03;100496.66;5113006;28;20027;-77
2023/01/19 10:16:30;;;;;;;11.90;11.10;;;;;;;3.58;69.04;100489.63;5107602;28;20666;-74
2023/01/19 10:19:01;;;;;;;15.35;13.90;;;;;;;3.58;68.90;100500.31;5098977;28;20310;-77
2023/01/19 10:21:32;;;;;;;15.32;13.95;;;;;;;3.56;69.23;100497.06;5104279;28;20062;-77
2023/01/19 10:24:06;;;;;;;13.02;12.07;;;;;;;3.55;68.93;100496.22;5093623;28;20036;-76
2023/01/19 10:26:33;;;;;;;12.98;11.90;;;;;;;3.55;68.73;100506.88;5093613;28;20076;-78
2023/01/19 10:29:34;;;;;;;15.27;13.88;;;;;;;3.55;68.93;100506.88;5093456;28;20032;-77
2023/01/19 10:32:06;;;;;;;14.45;12.35;;;;;;;3.55;69.02;100503.41;5093222;28;20024;-77
2023/01/19 10:34:32;;;;;;;17.88;15.07;;;;;;;3.55;68.84;100509.56;5092747;28;20039;-76
2023/01/19 10:37:17;;;;;;;18.63;16.25;;;;;;;3.55;68.84;100514.09;5092908;28;20039;-77
2023/01/19 10:39:45;;;;;;;12.18;11.13;;;;;;;3.55;69.24;100511.41;5084925;28;20048;-75
2023/01/19 10:42:15;;;;;;;21.38;19.42;;;;;;;3.55;69.34;100511.41;5092415;28;20380;-74
2023/01/19 10:44:41;;;;;;;17.98;16.45;;;;;;;3.54;69.00;100502.59;5094741;28;20032;-77
2023/01/19 10:47:15;;;;;;;20.83;14.18;;;;;;;3.54;69.22;100504.44;5107814;28;20035;-78
2023/01/19 10:49:41;;;;;;;19.17;14.25;;;;;;;3.52;69.01;100499.28;5111013;28;20032;-77
2023/01/19 10:52:27;;;;;;;15.70;14.52;;;;;;;3.53;69.32;100502.78;5093639;28;20128;-75
2023/01/19 10:54:54;;;;;;;16.05;14.68;;;;;;;3.53;69.31;100502.78;5102045;28;20051;-74
2023/01/19 10:57:30;;;;;;;28.30;16.00;;;;;;;3.53;69.47;100497.44;5093290;28;20028;-74
2023/01/19 10:59:56;;;;;;;14.90;13.77;;;;;;;3.52;68.99;100495.81;5089728;28;20085;-73
2023/01/19 11:02:27;;;;;;;24.10;14.65;;;;;;;3.52;69.33;100496.63;5091353;28;20445;-74
2023/01/19 11:04:59;;;;;;;13.70;12.27;;;;;;;3.54;69.30;100491.91;5104783;28;20067;-74
2023/01/19 11:07:29;;;;;;;16.10;14.57;;;;;;;3.55;69.28;100495.38;5091915;28;20024;-74
2023/01/19 11:10:16;;;;;;;14.00;13.00;;;;;;;3.55;69.25;100503.41;5101864;28;20028;-74
2023/01/19 11:12:45;;;;;;;16.23;14.85;;;;;;;3.56;68.93;100505.06;5095865;28;20819;-74
2023/01/19 11:15:19;;;;;;;16.13;14.48;;;;;;;3.55;69.08;100496.22;5097523;28;20050;-74
2023/01/19 11:17:47;;;;;;;18.60;15.48;;;;;;;3.56;69.17;100505.88;5092359;28;20054;-74
2023/01/19 11:20:26;;;;;;;14.25;13.02;;;;;;;3.57;69.40;100501.34;5091980;28;20089;-74
2023/01/19 11:23:32;;;;;;;12.70;11.88;;;;;;;3.58;69.22;100501.16;5105369;28;20039;-73
2023/01/19 11:26:00;;;;;;;14.70;13.23;;;;;;;3.55;69.14;100506.88;5091089;28;20051;-75
2023/01/19 11:28:35;;;;;;;15.70;14.50;;;;;;;3.58;69.59;100500.31;5101391;28;20011;-74